createdAt,value
2023-03-21T00:02:26.190Z,5.13
2023-03-21T00:05:29.621Z,5.07
2023-03-21T00:08:34.378Z,4.07
2023-03-21T00:11:37.704Z,4.82
2023-03-21T00:14:41.060Z,4.53
2023-03-21T00:17:44.797Z,5.40
2023-03-21T00:21:12.658Z,4.65
2023-03-21T00:24:23.208Z,5.05
2023-03-21T00:27:47.299Z,5.03
2023-03-21T00:30:51.699Z,5.18
2023-03-21T00:33:57.211Z,5.68
2023-03-21T00:37:01.550Z,5.80
2023-03-21T00:40:16.385Z,6.78
2023-03-21T00:43:30.049Z,5.80
2023-03-21T00:46:44.035Z,6.32
2023-03-21T00:49:48.769Z,6.78
2023-03-21T00:52:52.142Z,5.97
2023-03-21T00:55:56.990Z,6.78
2023-03-21T00:59:00.329Z,6.35
2023-03-21T01:02:07.147Z,7.15
2023-03-21T01:05:11.345Z,6.75
2023-03-21T01:08:26.568Z,7.20
2023-03-21T01:11:34.269Z,7.15
2023-03-21T01:14:37.664Z,6.95
2023-03-21T01:17:41.410Z,7.03
2023-03-21T01:20:45.199Z,7.43
2023-03-21T01:23:48.542Z,7.30
2023-03-21T01:26:53.220Z,7.43
2023-03-21T01:29:56.775Z,8.25
2023-03-21T01:33:00.611Z,8.02
2023-03-21T01:36:12.664Z,8.60
2023-03-21T01:39:17.392Z,8.43
2023-03-21T01:42:24.877Z,9.43
2023-03-21T01:45:47.155Z,7.70
2023-03-21T01:48:56.293Z,8.15
2023-03-21T01:52:06.605Z,7.82
2023-03-21T01:55:16.337Z,8.50
2023-03-21T01:58:31.867Z,8.50
2023-03-21T02:01:46.641Z,8.48
2023-03-21T02:04:50.960Z,8.43
2023-03-21T02:07:57.786Z,8.13
2023-03-21T02:11:01.472Z,8.02
2023-03-21T02:14:26.588Z,8.98
2023-03-21T02:17:39.012Z,8.70
2023-03-21T02:21:04.116Z,8.55
2023-03-21T02:24:27.073Z,8.48
2023-03-21T02:27:31.295Z,8.35
2023-03-21T02:30:52.461Z,8.82
2023-03-21T02:34:18.862Z,8.45
2023-03-21T02:37:36.966Z,8.13
2023-03-21T02:40:43.964Z,8.13
2023-03-21T02:43:49.080Z,8.40
2023-03-21T02:47:04.722Z,9.25
2023-03-21T02:50:14.012Z,10.07
2023-03-21T02:53:21.252Z,9.85
2023-03-21T02:56:27.143Z,9.68
2023-03-21T02:59:35.760Z,9.52
2023-03-21T03:02:42.422Z,9.32
2023-03-21T03:05:47.765Z,9.73
2023-03-21T03:09:15.440Z,9.43
2023-03-21T03:12:23.511Z,9.45
2023-03-21T03:15:35.020Z,9.18
2023-03-21T03:18:43.562Z,10.02
2023-03-21T03:21:49.854Z,10.05
2023-03-21T03:24:59.589Z,9.55
2023-03-21T03:28:07.109Z,8.48
2023-03-21T03:31:14.363Z,8.57
2023-03-21T03:34:26.203Z,8.65
2023-03-21T03:37:32.890Z,8.82
2023-03-21T03:40:41.052Z,9.07
2023-03-21T03:44:03.076Z,8.15
2023-03-21T03:47:22.949Z,9.15
2023-03-21T03:50:36.574Z,8.60
2023-03-21T03:53:44.471Z,8.07
2023-03-21T03:56:48.061Z,7.90
2023-03-21T03:59:52.752Z,9.25
2023-03-21T04:03:01.169Z,8.85
2023-03-21T04:06:05.042Z,8.50
2023-03-21T04:09:19.054Z,9.27
2023-03-21T04:12:24.097Z,8.23
2023-03-21T04:15:45.428Z,8.63
2023-03-21T04:18:52.443Z,9.25
2023-03-21T04:21:55.806Z,7.93
2023-03-21T04:25:00.556Z,8.77
2023-03-21T04:28:05.492Z,10.02
2023-03-21T04:31:31.311Z,8.60
2023-03-21T04:34:43.556Z,9.52
2023-03-21T04:37:47.946Z,9.93
2023-03-21T04:40:51.862Z,10.40
2023-03-21T04:43:55.701Z,8.27
2023-03-21T04:47:01.158Z,8.82
2023-03-21T04:50:05.133Z,9.43
2023-03-21T04:53:08.422Z,9.07
2023-03-21T04:56:12.186Z,9.25
2023-03-21T04:59:16.548Z,9.50
2023-03-21T05:02:21.170Z,9.07
2023-03-21T05:05:24.581Z,8.73
2023-03-21T05:08:28.878Z,9.63
2023-03-21T05:11:32.711Z,8.15
2023-03-21T05:14:36.224Z,10.13
2023-03-21T05:17:42.994Z,8.00
2023-03-21T05:20:53.996Z,8.32
2023-03-21T05:23:58.271Z,8.95
2023-03-21T05:27:02.664Z,8.52
2023-03-21T05:30:10.236Z,9.20
2023-03-21T05:33:15.536Z,9.13
2023-03-21T05:36:19.243Z,9.32
2023-03-21T05:39:22.848Z,8.55
2023-03-21T05:42:36.874Z,9.10
2023-03-21T05:45:49.154Z,8.93
2023-03-21T05:48:55.781Z,8.55
2023-03-21T05:52:00.526Z,8.43
2023-03-21T05:55:04.036Z,9.07
2023-03-21T05:58:08.684Z,8.55
2023-03-21T06:01:12.379Z,9.25
2023-03-21T06:04:20.634Z,8.75
2023-03-21T06:07:24.275Z,8.40
2023-03-21T06:10:27.671Z,8.85
2023-03-21T06:13:32.778Z,9.13
2023-03-21T06:16:36.527Z,9.38
2023-03-21T06:19:41.480Z,9.18
2023-03-21T06:22:51.119Z,9.32
2023-03-21T06:25:54.419Z,9.82
2023-03-21T06:29:00.665Z,9.52
2023-03-21T06:32:04.316Z,10.55
2023-03-21T06:35:09.737Z,9.60
2023-03-21T06:38:14.777Z,9.82
2023-03-21T06:41:19.540Z,11.60
2023-03-21T06:44:32.652Z,10.77
2023-03-21T06:47:40.585Z,9.32
2023-03-21T06:50:52.580Z,9.80
2023-03-21T06:53:57.784Z,9.77
2023-03-21T06:57:15.539Z,8.30
2023-03-21T07:00:19.645Z,9.82
2023-03-21T07:03:24.452Z,8.52
2023-03-21T07:06:30.150Z,9.57
2023-03-21T07:09:33.751Z,8.18
2023-03-21T07:12:41.733Z,8.25
2023-03-21T07:15:54.086Z,8.88
2023-03-21T07:18:57.428Z,8.93
2023-03-21T07:22:02.225Z,8.35
2023-03-21T07:25:06.240Z,8.32
2023-03-21T07:28:15.322Z,8.68
2023-03-21T07:31:19.625Z,8.43
2023-03-21T07:34:25.054Z,8.13
2023-03-21T07:37:29.930Z,8.88
2023-03-21T07:40:33.431Z,8.27
2023-03-21T07:43:39.182Z,8.18
2023-03-21T07:46:46.141Z,8.40
2023-03-21T07:49:49.447Z,9.20
2023-03-21T07:52:54.356Z,8.05
2023-03-21T07:55:57.737Z,8.68
2023-03-21T07:59:01.196Z,8.43
2023-03-21T08:02:04.594Z,8.90
2023-03-21T08:05:08.202Z,7.95
2023-03-21T08:08:13.054Z,8.70
2023-03-21T08:11:17.986Z,9.18
2023-03-21T08:14:21.360Z,9.45
2023-03-21T08:17:24.699Z,8.13
2023-03-21T08:20:28.090Z,8.48
2023-03-21T08:23:32.953Z,9.10
2023-03-21T08:26:36.289Z,8.73
2023-03-21T08:29:42.156Z,8.80
2023-03-21T08:32:45.912Z,9.20
2023-03-21T08:35:49.256Z,9.43
2023-03-21T08:38:57.007Z,9.65
2023-03-21T08:42:00.674Z,9.00
2023-03-21T08:45:04.875Z,9.57
2023-03-21T08:48:08.308Z,9.02
2023-03-21T08:51:11.888Z,9.63
2023-03-21T08:54:23.248Z,8.90
2023-03-21T08:57:26.617Z,9.20
2023-03-21T09:00:30.583Z,8.73
2023-03-21T09:03:33.843Z,8.43
2023-03-21T09:06:37.112Z,8.57
2023-03-21T09:09:42.282Z,9.00
2023-03-21T09:12:45.793Z,7.97
2023-03-21T09:15:49.364Z,8.27
2023-03-21T09:18:55.567Z,8.48
2023-03-21T09:21:59.706Z,8.52
2023-03-21T09:25:07.406Z,6.95
2023-03-21T09:28:11.345Z,8.18
2023-03-21T09:31:16.355Z,5.90
2023-03-21T09:34:19.775Z,8.05
2023-03-21T09:37:23.362Z,5.95
2023-03-21T09:40:34.192Z,6.65
2023-03-21T09:43:41.403Z,5.63
2023-03-21T09:46:47.391Z,6.47
2023-03-21T09:49:56.548Z,6.88
2023-03-21T09:53:03.656Z,6.20
2023-03-21T09:56:13.157Z,6.53
2023-03-21T09:59:21.832Z,6.07
2023-03-21T10:02:35.947Z,7.00
2023-03-21T10:05:45.799Z,6.45
2023-03-21T10:08:50.613Z,5.88
2023-03-21T10:11:57.733Z,6.82
2023-03-21T10:15:05.307Z,6.28
2023-03-21T10:18:09.209Z,5.78
2023-03-21T10:21:37.347Z,7.30
2023-03-21T10:24:40.338Z,7.93
2023-03-21T10:27:45.179Z,7.50
2023-03-21T10:30:50.729Z,6.90
2023-03-21T10:33:55.325Z,8.02
2023-03-21T10:36:58.690Z,8.45
2023-03-21T10:40:01.933Z,7.00
2023-03-21T10:43:20.491Z,7.22
2023-03-21T10:46:24.160Z,7.05
2023-03-21T10:49:27.528Z,7.68
2023-03-21T10:52:32.163Z,7.43
2023-03-21T10:55:36.589Z,8.05
2023-03-21T10:58:44.629Z,7.20
2023-03-21T11:01:50.506Z,8.27
2023-03-21T11:04:55.423Z,8.68
2023-03-21T11:08:02.780Z,7.90
2023-03-21T11:11:06.960Z,8.23
2023-03-21T11:14:25.930Z,7.60
2023-03-21T11:17:31.180Z,7.40
2023-03-21T11:20:35.141Z,7.30
2023-03-21T11:23:41.606Z,7.90
2023-03-21T11:26:46.309Z,7.63
2023-03-21T11:29:52.108Z,6.65
2023-03-21T11:32:56.947Z,6.53
2023-03-21T11:36:01.581Z,7.00
2023-03-21T11:39:14.579Z,6.68
2023-03-21T11:42:28.575Z,7.35
2023-03-21T11:45:34.023Z,6.88
2023-03-21T11:48:39.827Z,6.75
2023-03-21T11:51:48.462Z,6.40
2023-03-21T11:55:02.423Z,6.28
2023-03-21T11:58:16.130Z,5.85
2023-03-21T12:01:24.241Z,6.68
2023-03-21T12:04:36.070Z,6.18
2023-03-21T12:07:48.655Z,6.28
2023-03-21T12:10:55.467Z,6.78
2023-03-21T12:14:03.208Z,7.40
2023-03-21T12:17:12.090Z,6.55
2023-03-21T12:20:30.462Z,7.50
2023-03-21T12:23:44.400Z,6.70
2023-03-21T12:26:53.712Z,6.40
2023-03-21T12:30:04.005Z,6.28
2023-03-21T12:33:23.766Z,7.18
2023-03-21T12:36:39.228Z,6.80
2023-03-21T12:39:42.774Z,7.10
2023-03-21T12:42:56.813Z,5.95
2023-03-21T12:46:01.811Z,7.00
2023-03-21T12:49:10.464Z,6.93
2023-03-21T12:52:14.847Z,5.97
2023-03-21T12:55:20.368Z,6.80
2023-03-21T12:58:26.020Z,6.95
2023-03-21T13:01:30.360Z,6.13
2023-03-21T13:04:38.392Z,6.78
2023-03-21T13:07:43.370Z,6.70
2023-03-21T13:10:47.275Z,6.78
2023-03-21T13:13:52.642Z,6.13
2023-03-21T13:17:00.973Z,6.35
2023-03-21T13:20:11.443Z,5.47
2023-03-21T13:23:15.093Z,5.38
2023-03-21T13:26:18.418Z,5.78
2023-03-21T13:29:24.765Z,4.88
2023-03-21T13:32:31.119Z,5.03
2023-03-21T13:35:38.420Z,4.93
2023-03-21T13:38:43.169Z,4.82
2023-03-21T13:41:48.810Z,4.93
2023-03-21T13:44:54.308Z,4.60
2023-03-21T13:47:58.874Z,4.57
2023-03-21T13:51:04.314Z,4.43
2023-03-21T13:54:18.451Z,4.90
2023-03-21T13:57:39.276Z,4.28
2023-03-21T14:00:42.766Z,5.13
2023-03-21T14:03:47.068Z,5.15
2023-03-21T14:06:55.859Z,4.22
2023-03-21T14:10:02.132Z,4.25
2023-03-21T14:13:06.699Z,5.05
2023-03-21T14:16:12.568Z,4.85
2023-03-21T14:19:16.431Z,5.25
2023-03-21T14:22:21.132Z,5.88
2023-03-21T14:25:37.053Z,3.85
2023-03-21T14:28:53.269Z,4.50
2023-03-21T14:31:57.401Z,4.50
2023-03-21T14:35:02.554Z,4.10
2023-03-21T14:38:08.863Z,3.78
2023-03-21T14:41:24.560Z,4.20
2023-03-21T14:44:28.966Z,4.07
2023-03-21T14:47:32.990Z,4.00
2023-03-21T14:50:39.433Z,4.07
2023-03-21T14:53:44.447Z,4.28
2023-03-21T14:56:49.641Z,3.70
2023-03-21T14:59:54.624Z,3.42
2023-03-21T15:02:59.842Z,4.03
2023-03-21T15:06:03.760Z,4.22
2023-03-21T15:09:11.023Z,4.07
2023-03-21T15:12:16.685Z,4.18
2023-03-21T15:15:20.760Z,4.03
2023-03-21T15:18:27.321Z,3.72
2023-03-21T15:21:34.860Z,3.22
2023-03-21T15:24:41.397Z,3.20
2023-03-21T15:27:45.301Z,4.30
2023-03-21T15:30:50.671Z,3.67
2023-03-21T15:33:54.881Z,3.78
2023-03-21T15:36:59.024Z,3.80
2023-03-21T15:40:11.227Z,4.80
2023-03-21T15:43:16.300Z,3.92
2023-03-21T15:46:33.198Z,4.32
2023-03-21T15:49:41.633Z,3.80
2023-03-21T15:52:45.210Z,3.80
2023-03-21T15:55:52.184Z,3.65
2023-03-21T15:58:57.854Z,4.13
2023-03-21T16:02:01.346Z,3.60
2023-03-21T16:05:18.482Z,3.97
2023-03-21T16:08:23.131Z,3.38
2023-03-21T16:11:29.227Z,3.35
2023-03-21T16:14:32.569Z,3.90
2023-03-21T16:17:37.869Z,3.35
2023-03-21T16:20:42.361Z,3.42
2023-03-21T16:23:45.818Z,2.80
2023-03-21T16:26:52.148Z,2.40
2023-03-21T16:29:55.649Z,2.80
2023-03-21T16:32:59.059Z,2.75
2023-03-21T16:36:02.823Z,2.38
2023-03-21T16:39:13.152Z,2.70
2023-03-21T16:42:17.888Z,2.35
2023-03-21T16:45:21.387Z,2.50
2023-03-21T16:48:24.889Z,2.20
2023-03-21T16:51:32.646Z,2.38
2023-03-21T16:54:36.115Z,2.67
2023-03-21T16:57:40.849Z,3.28
2023-03-21T17:00:44.477Z,2.50
2023-03-21T17:03:48.523Z,1.98
2023-03-21T17:06:53.251Z,2.45
2023-03-21T17:09:56.657Z,2.42
2023-03-21T17:13:01.749Z,3.05
2023-03-21T17:16:06.448Z,2.55
2023-03-21T17:19:12.775Z,2.88
2023-03-21T17:22:16.210Z,3.08
2023-03-21T17:25:20.466Z,8.25
2023-03-21T17:28:25.130Z,5.38
2023-03-21T17:31:29.890Z,6.47
2023-03-21T17:34:33.233Z,5.03
2023-03-21T17:37:38.367Z,4.45
2023-03-21T17:40:41.723Z,6.50
2023-03-21T17:43:46.606Z,5.43
2023-03-21T17:46:51.926Z,4.90
2023-03-21T17:49:55.675Z,4.57
2023-03-21T17:52:59.069Z,4.40
2023-03-21T17:56:02.574Z,4.63
2023-03-21T17:59:08.150Z,4.32
2023-03-21T18:02:11.513Z,4.47
2023-03-21T18:05:15.014Z,3.72
2023-03-21T18:08:18.356Z,3.97
2023-03-21T18:11:22.753Z,3.20
2023-03-21T18:14:29.109Z,3.33
2023-03-21T18:17:33.970Z,3.33
2023-03-21T18:20:54.453Z,3.13
2023-03-21T18:23:58.257Z,3.58
2023-03-21T18:27:02.583Z,3.42
2023-03-21T18:30:53.054Z,3.22
2023-03-21T18:33:34.043Z,3.40
2023-03-21T18:36:38.043Z,4.35
2023-03-21T18:39:44.353Z,3.70
2023-03-21T18:43:41.436Z,3.80
2023-03-21T18:46:12.907Z,4.38
2023-03-21T18:52:39.864Z,3.95
2023-03-21T18:55:46.472Z,4.22
2023-03-21T18:58:50.889Z,4.30
2023-03-21T19:01:55.638Z,5.57
2023-03-21T19:04:59.048Z,6.32
2023-03-21T19:08:02.690Z,5.53
2023-03-21T19:11:07.051Z,5.88
2023-03-21T19:14:11.682Z,4.70
2023-03-21T19:18:07.660Z,5.55
2023-03-21T19:20:39.935Z,5.03
2023-03-21T19:24:20.855Z,6.05
2023-03-21T19:27:08.530Z,5.35
2023-03-21T19:30:15.878Z,5.97
2023-03-21T19:33:21.318Z,4.93
2023-03-21T19:36:26.445Z,4.50
2023-03-21T19:39:29.872Z,4.93
2023-03-21T19:42:34.656Z,4.72
2023-03-21T19:45:38.051Z,5.10
2023-03-21T19:48:44.060Z,5.30
2023-03-21T19:51:48.368Z,5.13
2023-03-21T19:54:53.524Z,4.63
2023-03-21T19:57:56.762Z,4.97
2023-03-21T20:01:00.996Z,5.18
2023-03-21T20:04:05.815Z,4.43
2023-03-21T20:07:09.229Z,5.63
2023-03-21T20:10:12.569Z,6.00
2023-03-21T20:13:15.916Z,6.60
2023-03-21T20:16:20.435Z,5.40
2023-03-21T20:19:25.367Z,6.20
2023-03-21T20:22:58.876Z,5.78
2023-03-21T20:25:52.713Z,6.43
2023-03-21T20:29:28.004Z,6.30
2023-03-21T20:32:21.066Z,5.95
2023-03-21T20:36:05.415Z,5.82
2023-03-21T20:38:49.566Z,6.47
2023-03-21T20:41:54.598Z,6.38
2023-03-21T20:45:00.717Z,6.10
2023-03-21T20:48:04.721Z,5.97
2023-03-21T20:52:04.401Z,6.18
2023-03-21T20:54:34.836Z,5.25
2023-03-21T20:57:39.048Z,4.72
2023-03-21T21:00:42.846Z,5.32
2023-03-21T21:03:46.765Z,6.55
2023-03-21T21:06:52.291Z,6.18
2023-03-21T21:09:55.710Z,5.57
2023-03-21T21:12:58.948Z,5.30
2023-03-21T21:16:02.673Z,5.22
2023-03-21T21:19:06.121Z,5.45
2023-03-21T21:22:10.999Z,5.95
2023-03-21T21:25:14.693Z,5.28
2023-03-21T21:28:28.707Z,5.00
2023-03-21T21:31:34.510Z,5.00
2023-03-21T21:34:38.078Z,4.90
2023-03-21T21:37:42.801Z,4.80
2023-03-21T21:40:46.516Z,5.57
2023-03-21T21:43:50.296Z,4.85
2023-03-21T21:46:53.791Z,4.65
2023-03-21T21:49:57.145Z,5.53
2023-03-21T21:53:03.677Z,4.28
2023-03-21T21:56:07.589Z,4.60
2023-03-21T21:59:10.826Z,5.53
2023-03-21T22:02:16.581Z,4.57
2023-03-21T22:05:20.826Z,4.95
2023-03-21T22:08:25.489Z,4.93
2023-03-21T22:11:28.880Z,5.25
2023-03-21T22:14:32.204Z,4.30
2023-03-21T22:17:36.635Z,4.88
2023-03-21T22:20:40.435Z,4.40
2023-03-21T22:23:45.493Z,4.13
2023-03-21T22:26:48.922Z,4.07
2023-03-21T22:29:52.180Z,4.32
2023-03-21T22:33:08.593Z,4.10
2023-03-21T22:36:13.244Z,4.32
2023-03-21T22:39:18.342Z,4.93
2023-03-21T22:42:21.651Z,4.28
2023-03-21T22:45:25.003Z,3.75
2023-03-21T22:48:29.895Z,5.72
2023-03-21T22:51:33.254Z,4.45
2023-03-21T22:54:37.904Z,4.60
2023-03-21T22:57:41.397Z,4.38
2023-03-21T23:00:44.839Z,3.80
2023-03-21T23:03:48.192Z,4.15
2023-03-21T23:06:51.659Z,4.07
2023-03-21T23:09:57.793Z,3.60
2023-03-21T23:13:01.275Z,4.55
2023-03-21T23:16:07.677Z,4.35
2023-03-21T23:19:11.858Z,4.28
2023-03-21T23:22:15.416Z,4.75
2023-03-21T23:25:20.916Z,4.03
2023-03-21T23:28:25.258Z,4.43
2023-03-21T23:31:29.133Z,4.20
2023-03-21T23:34:32.609Z,4.38
2023-03-21T23:37:35.975Z,4.15
2023-03-21T23:40:41.577Z,4.63
2023-03-21T23:43:46.504Z,3.75
2023-03-21T23:46:49.907Z,3.75
2023-03-21T23:49:54.320Z,3.55
2023-03-21T23:52:58.088Z,3.50
2023-03-21T23:56:03.743Z,3.60
2023-03-21T23:59:07.119Z,3.03
